Flight Briefing for CPX422

Departure Arrival
Miami International Airport (KMIA)
Click to view FAA NOTAMS
Philip S.W. Goldson International Airport (MZBZ)
Click to view FAA NOTAMS
Departure Time Arrival Time
N/A N/A
Aircraft Distance
B757-200SF 704nm
Departure METAR Arrival METAR
KMIA 181553Z 29005KT 10SM FEW017 23/20 A3007 RMK AO2 SLP181 T02330200 MZBZ 181600Z 00000KT 9999 SCT023 SCT048 28/22 A3004 Q1017 NOSIG
Suggested Route
MNATE2 MNATE MTH B646 FIS G765 MAXIM UG765 FRANT UG765 CZM UB764 TAMDA TAMD1A


View recent IFR Routes data
Notes



Charts and Procedures

Charts for KMIA
No chart available
Charts for MZBZ
No chart available

Windy.com Weather Map